createdAt,value
2022-10-18T00:03:00.863Z,5.68
2022-10-18T00:07:02.339Z,5.22
2022-10-18T00:11:04.167Z,5.38
2022-10-18T00:15:07.593Z,5.90
2022-10-18T00:19:12.197Z,4.65
2022-10-18T00:23:14.255Z,4.40
2022-10-18T00:27:15.751Z,5.18
2022-10-18T00:31:30.647Z,4.88
2022-10-18T00:35:35.248Z,6.22
2022-10-18T00:39:39.169Z,5.78
2022-10-18T00:44:05.116Z,6.25
2022-10-18T00:48:12.379Z,4.50
2022-10-18T00:52:21.775Z,4.22
2022-10-18T00:56:23.274Z,4.25
2022-10-18T01:00:27.708Z,4.10
2022-10-18T01:04:29.246Z,4.63
2022-10-18T01:09:09.923Z,3.85
2022-10-18T01:13:23.435Z,4.20
2022-10-18T01:17:34.272Z,4.00
2022-10-18T01:21:54.891Z,3.97
2022-10-18T01:26:34.410Z,5.18
2022-10-18T01:30:47.362Z,4.03
2022-10-18T01:34:50.774Z,3.72
2022-10-18T01:38:54.560Z,3.50
2022-10-18T01:42:56.106Z,3.47
2022-10-18T01:46:58.466Z,4.82
2022-10-18T01:51:00.523Z,3.22
2022-10-18T01:55:03.570Z,3.83
2022-10-18T01:59:21.983Z,3.80
2022-10-18T02:03:25.058Z,3.58
2022-10-18T02:07:34.282Z,3.72
2022-10-18T02:11:38.300Z,3.03
2022-10-18T02:15:42.599Z,3.53
2022-10-18T02:19:47.100Z,2.85
2022-10-18T02:23:49.003Z,3.50
2022-10-18T02:27:51.655Z,2.80
2022-10-18T02:32:02.935Z,2.75
2022-10-18T02:36:09.882Z,3.17
2022-10-18T02:40:12.027Z,2.90
2022-10-18T02:44:13.428Z,3.05
2022-10-18T02:48:14.995Z,3.17
2022-10-18T02:52:16.579Z,3.42
2022-10-18T02:56:18.375Z,3.10
2022-10-18T03:00:19.904Z,3.45
2022-10-18T03:04:21.368Z,3.05
2022-10-18T03:08:23.052Z,2.92
2022-10-18T03:12:24.680Z,3.40
2022-10-18T03:16:26.594Z,3.88
2022-10-18T03:20:28.164Z,2.75
2022-10-18T03:24:29.567Z,2.80
2022-10-18T03:28:31.422Z,3.63
2022-10-18T03:32:33.103Z,3.90
2022-10-18T03:36:35.040Z,2.83
2022-10-18T03:40:36.790Z,3.70
2022-10-18T03:44:38.238Z,4.38
2022-10-18T03:48:39.716Z,2.80
2022-10-18T03:52:41.616Z,2.78
2022-10-18T03:56:43.558Z,3.10
2022-10-18T04:00:44.991Z,3.15
2022-10-18T04:04:46.834Z,2.70
2022-10-18T04:08:48.590Z,3.13
2022-10-18T04:12:50.182Z,3.03
2022-10-18T04:16:51.690Z,3.03
2022-10-18T04:20:53.479Z,3.60
2022-10-18T04:24:56.917Z,3.13
2022-10-18T04:28:58.567Z,2.55
2022-10-18T04:33:00.243Z,3.08
2022-10-18T04:37:01.722Z,3.25
2022-10-18T04:41:03.242Z,2.75
2022-10-18T04:45:05.370Z,3.65
2022-10-18T04:49:06.827Z,3.13
2022-10-18T04:53:08.502Z,3.35
2022-10-18T04:57:10.372Z,3.13
2022-10-18T05:01:13.298Z,3.15
2022-10-18T05:05:19.228Z,2.88
2022-10-18T05:09:24.493Z,3.28
2022-10-18T05:13:27.247Z,3.05
2022-10-18T05:17:28.743Z,3.53
2022-10-18T05:21:30.181Z,4.07
2022-10-18T05:25:33.510Z,2.97
2022-10-18T05:29:35.029Z,3.20
2022-10-18T05:33:38.993Z,3.30
2022-10-18T05:37:53.979Z,4.53
2022-10-18T05:42:01.163Z,3.38
2022-10-18T05:50:43.205Z,3.40
2022-10-18T05:59:12.242Z,3.10
2022-10-18T06:03:14.091Z,2.83
2022-10-18T06:07:16.426Z,3.05
2022-10-18T06:11:19.645Z,2.97
2022-10-18T06:15:21.247Z,2.72
2022-10-18T06:19:23.543Z,3.40
2022-10-18T06:23:26.682Z,3.53
2022-10-18T06:27:28.182Z,3.17
2022-10-18T06:31:29.626Z,3.97
2022-10-18T06:35:31.508Z,2.90
2022-10-18T06:39:41.769Z,2.25
2022-10-18T06:43:44.107Z,2.78
2022-10-18T06:47:45.884Z,2.92
2022-10-18T06:51:47.349Z,3.50
2022-10-18T06:55:49.135Z,2.75
2022-10-18T06:59:52.127Z,3.33
2022-10-18T07:03:54.049Z,2.88
2022-10-18T07:07:56.479Z,2.88
2022-10-18T07:11:58.113Z,3.25
2022-10-18T07:16:19.518Z,3.40
2022-10-18T07:20:20.890Z,2.45
2022-10-18T07:24:22.526Z,3.55
2022-10-18T07:28:24.482Z,2.47
2022-10-18T07:32:26.394Z,2.42
2022-10-18T07:36:27.825Z,2.95
2022-10-18T07:40:29.310Z,3.08
2022-10-18T07:44:31.160Z,3.58
2022-10-18T07:48:32.671Z,2.85
2022-10-18T07:52:34.303Z,3.72
2022-10-18T07:56:36.002Z,2.80
2022-10-18T08:00:37.913Z,2.70
2022-10-18T08:04:39.421Z,3.00
2022-10-18T08:08:41.253Z,2.72
2022-10-18T08:12:43.066Z,2.90
2022-10-18T08:16:44.509Z,2.90
2022-10-18T08:20:46.998Z,3.25
2022-10-18T08:24:49.452Z,3.05
2022-10-18T08:29:03.545Z,3.33
2022-10-18T08:33:11.647Z,3.00
2022-10-18T08:37:13.120Z,2.72
2022-10-18T08:41:38.273Z,2.97
2022-10-18T08:45:43.235Z,3.08
2022-10-18T08:50:01.035Z,2.88
2022-10-18T08:54:21.158Z,3.08
2022-10-18T08:58:29.490Z,2.67
2022-10-18T09:41:13.442Z,2.55
2022-10-18T09:45:25.829Z,2.78
2022-10-18T09:49:30.322Z,2.00
2022-10-18T09:54:22.832Z,2.47
2022-10-18T09:59:26.431Z,2.88
2022-10-18T10:03:28.056Z,3.00
2022-10-18T10:07:35.398Z,2.78
2022-10-18T10:11:48.062Z,2.42
2022-10-18T10:15:57.795Z,2.78
2022-10-18T10:20:04.147Z,3.03
2022-10-18T10:24:05.944Z,2.17
2022-10-18T10:28:15.809Z,2.95
2022-10-18T10:32:20.568Z,2.83
2022-10-18T10:36:22.227Z,3.08
2022-10-18T10:40:28.816Z,3.13
2022-10-18T10:44:32.997Z,3.03
2022-10-18T10:49:34.589Z,2.13
2022-10-18T10:57:27.901Z,2.35
2022-10-18T11:01:33.668Z,2.80
2022-10-18T11:05:43.855Z,2.92
2022-10-18T11:09:48.618Z,3.22
2022-10-18T11:14:07.278Z,2.70
2022-10-18T11:18:24.611Z,2.55
2022-10-18T11:22:26.401Z,2.35
2022-10-18T11:26:54.663Z,3.42
2022-10-18T11:30:59.334Z,2.65
2022-10-18T11:35:29.730Z,2.97
2022-10-18T11:39:37.785Z,2.47
2022-10-18T11:44:03.534Z,3.63
2022-10-18T11:48:21.765Z,3.42
2022-10-18T11:52:29.498Z,2.47
2022-10-18T11:56:56.949Z,2.25
2022-10-18T12:01:04.414Z,3.47
2022-10-18T12:09:33.399Z,3.28
2022-10-18T12:13:37.509Z,3.22
2022-10-18T12:17:51.118Z,2.70
2022-10-18T12:21:53.561Z,3.00
2022-10-18T12:26:01.356Z,2.55
2022-10-18T12:30:07.580Z,2.42
2022-10-18T12:34:21.387Z,1.30
2022-10-18T12:38:29.968Z,1.10
2022-10-18T12:42:32.915Z,1.25
2022-10-18T12:46:52.650Z,1.35
2022-10-18T12:50:59.367Z,1.27
2022-10-18T12:55:19.370Z,1.27
2022-10-18T12:59:23.439Z,1.55
2022-10-18T13:03:24.873Z,1.27
2022-10-18T13:07:41.020Z,1.25
2022-10-18T13:11:42.636Z,1.63
2022-10-18T13:15:46.839Z,1.42
2022-10-18T13:20:27.381Z,1.38
2022-10-18T13:24:40.358Z,1.58
2022-10-18T13:28:57.437Z,1.45
2022-10-18T13:33:09.646Z,1.73
2022-10-18T13:37:11.017Z,1.80
2022-10-18T13:41:13.827Z,1.70
2022-10-18T13:45:33.399Z,1.95
2022-10-18T13:49:43.932Z,1.23
2022-10-18T13:53:54.066Z,1.60
2022-10-18T13:58:11.611Z,1.40
2022-10-18T14:02:13.044Z,1.10
2022-10-18T14:06:22.970Z,1.48
2022-10-18T14:10:43.703Z,1.70
2022-10-18T14:14:51.534Z,1.00
2022-10-18T14:18:56.754Z,1.23
2022-10-18T14:23:11.456Z,1.27
2022-10-18T14:27:24.697Z,1.10
2022-10-18T14:31:26.842Z,1.25
2022-10-18T14:35:40.466Z,1.42
2022-10-18T14:39:44.629Z,1.40
2022-10-18T14:43:47.964Z,1.15
2022-10-18T14:48:25.269Z,2.78
2022-10-18T14:56:38.268Z,1.75
2022-10-18T15:00:47.775Z,2.92
2022-10-18T15:14:13.683Z,1.90
2022-10-18T15:18:26.198Z,2.30
2022-10-18T15:22:32.185Z,2.22
2022-10-18T15:26:41.228Z,2.35
2022-10-18T15:30:44.923Z,1.90
2022-10-18T15:35:34.673Z,2.53
2022-10-18T15:39:45.433Z,3.10
2022-10-18T15:59:51.218Z,3.33
2022-10-18T16:04:24.225Z,3.80
2022-10-18T16:13:43.637Z,3.47
2022-10-18T16:17:48.527Z,3.20
2022-10-18T16:21:56.283Z,4.55
2022-10-18T16:25:58.260Z,3.70
2022-10-18T16:35:32.954Z,3.47
2022-10-18T16:39:42.033Z,3.50
2022-10-18T16:44:33.058Z,3.95
2022-10-18T16:48:35.524Z,3.78
2022-10-18T16:52:42.430Z,3.95
2022-10-18T16:56:44.130Z,3.30
2022-10-18T17:00:46.918Z,4.60
2022-10-18T17:04:48.300Z,8.07
2022-10-18T17:08:50.711Z,7.03
2022-10-18T17:12:52.288Z,5.90
2022-10-18T17:16:56.055Z,5.90
2022-10-18T17:21:02.893Z,5.20
2022-10-18T17:25:05.315Z,4.13
2022-10-18T17:29:08.453Z,6.18
2022-10-18T17:33:10.335Z,8.05
2022-10-18T17:37:11.856Z,7.70
2022-10-18T17:41:13.602Z,6.15
2022-10-18T17:45:21.823Z,6.07
2022-10-18T17:49:23.364Z,6.18
2022-10-18T17:53:28.715Z,6.70
2022-10-18T17:57:33.480Z,7.88
2022-10-18T18:01:35.247Z,6.88
2022-10-18T18:05:37.240Z,7.35
2022-10-18T18:09:38.920Z,6.38
2022-10-18T18:13:40.759Z,5.82
2022-10-18T18:17:58.302Z,6.32
2022-10-18T18:22:00.502Z,6.05
2022-10-18T18:26:02.215Z,8.75
2022-10-18T18:30:04.102Z,7.78
2022-10-18T18:34:05.945Z,7.18
2022-10-18T18:38:08.193Z,6.97
2022-10-18T18:42:10.920Z,5.50
2022-10-18T18:46:13.051Z,6.05
2022-10-18T18:50:14.526Z,5.78
2022-10-18T18:54:16.263Z,5.82
2022-10-18T18:58:18.135Z,6.40
2022-10-18T19:02:21.763Z,6.40
2022-10-18T19:06:31.922Z,6.47
2022-10-18T19:10:34.093Z,7.00
2022-10-18T19:14:36.113Z,5.40
2022-10-18T19:18:37.883Z,6.45
2022-10-18T19:22:39.566Z,7.28
2022-10-18T19:26:45.029Z,7.65
2022-10-18T19:30:49.991Z,8.07
2022-10-18T19:34:52.851Z,8.60
2022-10-18T19:38:54.786Z,8.55
2022-10-18T19:42:56.399Z,7.25
2022-10-18T19:46:57.935Z,7.32
2022-10-18T19:51:04.511Z,8.43
2022-10-18T19:55:06.692Z,7.18
2022-10-18T19:59:09.130Z,6.53
2022-10-18T20:03:11.639Z,7.47
2022-10-18T20:07:13.048Z,7.55
2022-10-18T20:11:18.879Z,6.65
2022-10-18T20:15:20.337Z,7.35
2022-10-18T20:19:21.959Z,7.18
2022-10-18T20:23:23.601Z,6.68
2022-10-18T20:27:26.050Z,6.78
2022-10-18T20:31:29.596Z,6.50
2022-10-18T20:35:31.038Z,6.03
2022-10-18T20:39:33.864Z,6.93
2022-10-18T20:43:35.732Z,6.90
2022-10-18T20:47:37.650Z,6.88
2022-10-18T20:51:40.079Z,6.28
2022-10-18T20:55:42.966Z,6.57
2022-10-18T20:59:44.794Z,5.95
2022-10-18T21:03:47.735Z,7.38
2022-10-18T21:07:49.124Z,6.82
2022-10-18T21:11:51.589Z,7.10
2022-10-18T21:15:57.203Z,7.32
2022-10-18T21:19:59.048Z,6.85
2022-10-18T21:24:03.844Z,6.45
2022-10-18T21:28:08.791Z,6.72
2022-10-18T21:32:10.301Z,6.70
2022-10-18T21:36:12.498Z,6.63
2022-10-18T21:40:14.003Z,7.57
2022-10-18T21:44:16.230Z,6.65
2022-10-18T21:48:18.164Z,6.28
2022-10-18T21:52:19.801Z,7.78
2022-10-18T21:56:27.653Z,6.60
2022-10-18T22:00:29.108Z,6.28
2022-10-18T22:04:35.863Z,7.10
2022-10-18T22:08:37.381Z,7.13
2022-10-18T22:12:38.950Z,6.00
2022-10-18T22:16:40.608Z,6.40
2022-10-18T22:20:42.110Z,7.82
2022-10-18T22:24:43.574Z,7.70
2022-10-18T22:28:46.078Z,9.35
2022-10-18T22:32:47.753Z,8.80
2022-10-18T22:36:52.114Z,9.52
2022-10-18T22:40:56.145Z,7.35
2022-10-18T22:44:57.579Z,6.65
2022-10-18T22:48:59.251Z,8.98
2022-10-18T22:53:00.709Z,7.10
2022-10-18T22:57:02.180Z,7.40
2022-10-18T23:01:09.984Z,7.30
2022-10-18T23:05:11.385Z,7.88
2022-10-18T23:09:14.340Z,8.85
2022-10-18T23:13:15.828Z,8.70
2022-10-18T23:17:17.292Z,7.88
2022-10-18T23:21:46.935Z,8.75
2022-10-18T23:25:51.650Z,7.82
2022-10-18T23:29:53.797Z,8.65
2022-10-18T23:33:57.509Z,6.95
2022-10-18T23:38:02.431Z,8.20
2022-10-18T23:42:06.380Z,7.35
2022-10-18T23:46:08.156Z,7.93
2022-10-18T23:50:11.313Z,9.07
2022-10-18T23:54:19.377Z,9.07
2022-10-18T23:58:21.112Z,8.98
